createdAt,value
2022-11-11T00:01:12.635Z,8.55
2022-11-11T00:06:33.405Z,8.65
2022-11-11T00:11:54.143Z,8.68
2022-11-11T00:17:33.729Z,8.92
2022-11-11T00:23:17.376Z,9.08
2022-11-11T00:28:38.106Z,8.94
2022-11-11T00:33:58.530Z,8.90
2022-11-11T00:39:19.167Z,8.85
2022-11-11T00:44:39.516Z,8.77
2022-11-11T00:50:18.269Z,8.76
2022-11-11T00:55:39.033Z,8.78
2022-11-11T01:00:59.922Z,8.68
2022-11-11T01:06:20.515Z,8.67
2022-11-11T01:11:40.819Z,8.67
2022-11-11T01:17:01.633Z,8.63
2022-11-11T01:22:22.294Z,8.66
2022-11-11T01:27:42.633Z,8.64
2022-11-11T01:33:04.103Z,8.86
2022-11-11T01:38:24.758Z,9.09
2022-11-11T01:43:45.635Z,9.23
2022-11-11T01:49:31.094Z,9.52
2022-11-11T01:54:56.619Z,9.67
2022-11-11T02:00:19.258Z,9.85
2022-11-11T02:05:44.177Z,9.95
2022-11-11T02:11:17.017Z,9.95
2022-11-11T02:16:37.471Z,9.98
2022-11-11T02:22:02.511Z,9.77
2022-11-11T02:27:25.107Z,9.71
2022-11-11T02:32:49.766Z,9.75
2022-11-11T02:38:14.666Z,9.80
2022-11-11T02:43:35.404Z,9.77
2022-11-11T02:48:55.975Z,9.68
2022-11-11T02:54:16.575Z,9.55
2022-11-11T02:59:39.385Z,9.27
2022-11-11T03:04:59.728Z,9.09
2022-11-11T03:10:20.270Z,9.05
2022-11-11T03:15:41.980Z,8.98
2022-11-11T03:21:38.175Z,8.92
2022-11-11T03:26:46.068Z,8.94
2022-11-11T03:32:07.985Z,8.96
2022-11-11T03:37:47.183Z,9.02
2022-11-11T03:43:07.491Z,9.00
2022-11-11T03:48:30.675Z,9.04
2022-11-11T03:53:51.200Z,9.14
2022-11-11T03:59:11.453Z,9.17
2022-11-11T04:04:50.590Z,9.31
2022-11-11T04:10:23.357Z,9.38
2022-11-11T04:16:02.203Z,9.48
2022-11-11T04:21:43.129Z,9.54
2022-11-11T04:27:10.223Z,9.59
2022-11-11T04:32:38.569Z,9.60
2022-11-11T04:38:19.208Z,9.68
2022-11-11T04:43:58.336Z,9.77
2022-11-11T04:49:18.745Z,9.74
2022-11-11T04:54:59.215Z,9.83
2022-11-11T05:00:19.995Z,9.68
2022-11-11T05:05:59.418Z,9.67
2022-11-11T05:11:20.607Z,9.74
2022-11-11T05:17:02.981Z,9.89
2022-11-11T05:22:42.725Z,10.06
2022-11-11T05:28:03.070Z,10.11
2022-11-11T05:33:23.881Z,10.16
2022-11-11T05:38:44.756Z,10.16
2022-11-11T05:44:05.340Z,10.14
2022-11-11T05:49:25.989Z,10.40
2022-11-11T05:54:46.896Z,10.54
2022-11-11T06:00:08.179Z,10.53
2022-11-11T06:05:28.539Z,10.53
2022-11-11T06:10:51.617Z,10.67
2022-11-11T06:16:12.033Z,10.65
2022-11-11T06:21:52.692Z,10.87
2022-11-11T06:27:13.088Z,10.86
2022-11-11T06:32:33.762Z,11.08
2022-11-11T06:37:54.524Z,11.16
2022-11-11T06:43:15.015Z,11.31
2022-11-11T06:48:35.443Z,11.39
2022-11-11T06:53:55.773Z,11.58
2022-11-11T06:59:16.243Z,11.60
2022-11-11T07:04:36.360Z,11.63
2022-11-11T07:09:57.288Z,11.78
2022-11-11T07:15:17.783Z,11.94
2022-11-11T07:20:39.107Z,11.75
2022-11-11T07:25:59.212Z,11.94
2022-11-11T07:31:19.872Z,11.98
2022-11-11T07:36:40.584Z,12.06
2022-11-11T07:42:01.563Z,11.81
2022-11-11T07:47:22.013Z,12.01
2022-11-11T07:52:48.696Z,12.26
2022-11-11T07:58:09.740Z,12.38
2022-11-11T08:03:30.017Z,12.69
2022-11-11T08:08:50.612Z,12.73
2022-11-11T08:14:10.982Z,12.97
2022-11-11T08:19:31.641Z,12.87
2022-11-11T08:25:07.828Z,12.89
2022-11-11T08:30:29.436Z,13.07
2022-11-11T08:35:50.262Z,13.24
2022-11-11T08:41:10.839Z,13.25
2022-11-11T08:46:31.232Z,13.67
2022-11-11T08:51:51.981Z,13.73
2022-11-11T08:57:12.308Z,14.01
2022-11-11T09:02:32.581Z,14.34
2022-11-11T09:07:52.933Z,14.15
2022-11-11T09:13:31.733Z,14.22
2022-11-11T09:18:52.418Z,14.65
2022-11-11T09:24:12.939Z,14.54
2022-11-11T09:29:33.408Z,14.60
2022-11-11T09:34:55.385Z,14.72
2022-11-11T09:40:21.200Z,14.34
2022-11-11T09:46:05.132Z,14.68
2022-11-11T09:51:55.241Z,14.73
2022-11-11T09:57:46.000Z,14.94
2022-11-11T10:03:11.751Z,14.85
2022-11-11T10:09:02.711Z,14.87
2022-11-11T10:14:23.617Z,14.84
2022-11-11T10:20:23.256Z,14.32
2022-11-11T10:26:19.809Z,14.51
2022-11-11T10:31:42.532Z,14.36
2022-11-11T10:37:03.837Z,14.38
2022-11-11T10:42:24.379Z,14.34
2022-11-11T10:47:57.661Z,14.35
2022-11-11T10:53:30.186Z,14.42
2022-11-11T10:59:09.196Z,14.57
2022-11-11T11:04:35.712Z,14.60
2022-11-11T11:10:05.131Z,14.78
2022-11-11T11:15:28.762Z,14.92
2022-11-11T11:21:01.150Z,14.74
2022-11-11T11:26:21.520Z,14.75
2022-11-11T11:31:47.639Z,14.72
2022-11-11T11:37:08.782Z,14.97
2022-11-11T11:42:33.895Z,14.68
2022-11-11T11:48:24.071Z,14.87
2022-11-11T11:54:07.444Z,14.69
2022-11-11T11:59:42.017Z,14.85
2022-11-11T12:05:09.202Z,14.91
2022-11-11T12:10:40.648Z,14.71
2022-11-11T12:16:18.461Z,14.65
2022-11-11T12:22:03.015Z,14.67
2022-11-11T12:27:39.569Z,14.51
2022-11-11T12:33:29.892Z,14.77
2022-11-11T12:38:54.257Z,14.86
2022-11-11T12:44:15.409Z,14.65
2022-11-11T12:49:57.662Z,14.81
2022-11-11T12:55:20.847Z,14.73
2022-11-11T13:00:56.317Z,14.49
2022-11-11T13:06:33.652Z,14.47
2022-11-11T13:11:59.622Z,14.54
2022-11-11T13:17:22.094Z,14.52
2022-11-11T13:22:42.690Z,14.53
2022-11-11T13:28:21.418Z,14.56
2022-11-11T13:33:49.072Z,14.63
2022-11-11T13:39:30.160Z,14.45
2022-11-11T13:44:54.385Z,14.45
2022-11-11T13:50:26.631Z,14.28
2022-11-11T13:55:47.434Z,14.29
2022-11-11T14:01:11.316Z,14.21
2022-11-11T14:06:34.595Z,14.19
2022-11-11T14:12:22.352Z,14.14
2022-11-11T14:17:52.027Z,14.11
2022-11-11T14:23:16.894Z,14.13
2022-11-11T14:28:51.542Z,14.13
2022-11-11T14:34:18.022Z,14.07
2022-11-11T14:39:51.493Z,14.01
2022-11-11T14:45:25.335Z,13.94
2022-11-11T14:50:53.273Z,14.00
2022-11-11T14:56:21.336Z,13.75
2022-11-11T15:01:42.092Z,13.91
2022-11-11T15:07:02.798Z,13.93
2022-11-11T15:12:53.235Z,13.74
2022-11-11T15:18:26.300Z,13.75
2022-11-11T15:24:37.029Z,13.75
2022-11-11T15:30:03.033Z,13.78
2022-11-11T15:35:27.780Z,13.50
2022-11-11T15:41:00.041Z,13.54
2022-11-11T15:46:31.116Z,12.90
2022-11-11T15:51:57.019Z,13.54
2022-11-11T15:57:39.403Z,14.15
2022-11-11T16:03:06.865Z,14.68
2022-11-11T16:08:28.944Z,14.64
2022-11-11T16:14:08.003Z,14.58
2022-11-11T16:19:48.829Z,14.18
2022-11-11T16:25:19.682Z,14.13
2022-11-11T16:30:40.547Z,14.33
2022-11-11T16:36:11.176Z,14.14
2022-11-11T16:41:32.009Z,13.98
2022-11-11T16:46:52.623Z,13.99
2022-11-11T16:52:19.108Z,13.99
2022-11-11T16:57:43.243Z,14.08
2022-11-11T17:03:17.472Z,14.01
2022-11-11T17:08:46.685Z,14.29
2022-11-11T17:14:07.531Z,13.96
2022-11-11T17:19:28.188Z,14.29
2022-11-11T17:24:48.988Z,13.76
2022-11-11T17:30:10.417Z,13.62
2022-11-11T17:35:30.892Z,13.92
2022-11-11T17:40:51.243Z,13.78
2022-11-11T17:46:11.859Z,13.91
2022-11-11T17:51:32.371Z,14.09
2022-11-11T17:56:54.200Z,13.79
2022-11-11T18:02:14.687Z,14.09
2022-11-11T18:07:44.899Z,13.96
2022-11-11T18:13:05.638Z,13.61
2022-11-11T18:18:27.281Z,13.68
2022-11-11T18:23:51.581Z,13.26
2022-11-11T18:29:12.374Z,13.84
2022-11-11T18:34:39.388Z,13.79
2022-11-11T18:40:06.792Z,14.08
2022-11-11T18:45:27.919Z,14.10
2022-11-11T18:50:55.031Z,14.19
2022-11-11T18:56:18.115Z,14.22
2022-11-11T19:01:40.968Z,13.41
2022-11-11T19:07:01.453Z,14.17
2022-11-11T19:12:22.115Z,14.17
2022-11-11T19:17:42.598Z,13.90
2022-11-11T19:23:03.260Z,14.28
2022-11-11T19:28:23.621Z,13.91
2022-11-11T19:33:46.429Z,13.73
2022-11-11T19:39:09.827Z,13.27
2022-11-11T19:44:30.099Z,13.49
2022-11-11T19:49:50.744Z,13.60
2022-11-11T19:55:11.452Z,13.37
2022-11-11T20:00:31.845Z,13.69
2022-11-11T20:05:52.345Z,13.27
2022-11-11T20:11:12.767Z,13.36
2022-11-11T20:16:33.436Z,13.75
2022-11-11T20:21:53.847Z,13.63
2022-11-11T20:27:14.322Z,13.73
2022-11-11T20:32:35.731Z,13.91
2022-11-11T20:37:56.343Z,13.78
2022-11-11T20:43:17.091Z,13.83
2022-11-11T20:48:39.575Z,13.86
2022-11-11T20:53:59.824Z,13.80
2022-11-11T20:59:20.424Z,13.88
2022-11-11T21:04:42.368Z,13.70
2022-11-11T21:10:02.852Z,14.10
2022-11-11T21:15:23.776Z,14.05
2022-11-11T21:20:45.171Z,14.11
2022-11-11T21:26:10.643Z,14.24
2022-11-11T21:31:40.092Z,14.19
2022-11-11T21:37:00.347Z,14.24
2022-11-11T21:42:20.536Z,14.11
2022-11-11T21:47:43.807Z,14.21
2022-11-11T21:53:10.206Z,14.11
2022-11-11T21:58:37.616Z,14.23
2022-11-11T22:04:04.031Z,14.07
2022-11-11T22:09:24.414Z,13.97
2022-11-11T22:14:46.284Z,13.99
2022-11-11T22:20:07.107Z,13.65
2022-11-11T22:25:27.789Z,13.85
2022-11-11T22:30:48.296Z,13.91
2022-11-11T22:36:14.588Z,13.79
2022-11-11T22:41:37.463Z,13.67
2022-11-11T22:46:58.262Z,14.12
2022-11-11T22:52:18.641Z,14.17
2022-11-11T22:57:39.099Z,14.24
2022-11-11T23:02:59.715Z,14.14
2022-11-11T23:08:20.020Z,13.96
2022-11-11T23:13:42.185Z,14.04
2022-11-11T23:19:06.101Z,14.23
2022-11-11T23:24:26.572Z,14.30
2022-11-11T23:29:52.060Z,14.29
2022-11-11T23:35:12.708Z,14.29
2022-11-11T23:40:33.385Z,14.35
2022-11-11T23:45:57.526Z,14.39
2022-11-11T23:51:18.964Z,14.55
2022-11-11T23:56:39.543Z,14.42
